createdAt,value
2019-01-15T00:00:37.144Z,6.07
2019-01-15T00:01:37.153Z,6.09
2019-01-15T00:02:36.911Z,6.09
2019-01-15T00:03:37.467Z,6.16
2019-01-15T00:04:37.465Z,6.16
2019-01-15T00:05:37.228Z,6.09
2019-01-15T00:06:37.240Z,6.09
2019-01-15T00:07:37.258Z,6.12
2019-01-15T00:08:37.286Z,6.19
2019-01-15T00:09:37.542Z,6.12
2019-01-15T00:10:37.320Z,6.09
2019-01-15T00:11:37.067Z,6.07
2019-01-15T00:12:37.339Z,6.17
2019-01-15T00:13:37.625Z,6.14
2019-01-15T00:14:37.368Z,6.16
2019-01-15T00:15:37.137Z,6.14
2019-01-15T00:16:37.167Z,6.16
2019-01-15T00:17:37.689Z,6.16
2019-01-15T00:18:37.711Z,6.12
2019-01-15T00:19:37.453Z,6.14
2019-01-15T00:20:37.211Z,6.17
2019-01-15T00:21:37.497Z,6.04
2019-01-15T00:22:37.782Z,6.09
2019-01-15T00:23:37.519Z,6.12
2019-01-15T00:24:37.291Z,6.09
2019-01-15T00:25:37.300Z,6.17
2019-01-15T00:26:37.306Z,6.12
2019-01-15T00:27:37.597Z,6.01
2019-01-15T00:28:37.600Z,6.11
2019-01-15T00:29:37.365Z,6.19
2019-01-15T00:30:37.636Z,6.01
2019-01-15T00:31:37.671Z,6.16
2019-01-15T00:32:37.416Z,6.05
2019-01-15T00:33:37.679Z,6.07
2019-01-15T00:34:37.697Z,6.05
2019-01-15T00:35:37.459Z,6.05
2019-01-15T00:36:37.733Z,6.02
2019-01-15T00:37:37.497Z,6.04
2019-01-15T00:38:37.772Z,6.01
2019-01-15T00:39:37.777Z,6.05
2019-01-15T00:40:38.071Z,6.05
2019-01-15T00:41:38.085Z,6.11
2019-01-15T00:42:37.838Z,5.99
2019-01-15T00:43:37.852Z,5.99
2019-01-15T00:44:38.124Z,5.98
2019-01-15T00:45:37.631Z,5.94
2019-01-15T00:46:37.909Z,6.05
2019-01-15T00:47:38.172Z,5.93
2019-01-15T00:48:37.665Z,6.01
2019-01-15T00:49:38.201Z,6.04
2019-01-15T00:50:37.977Z,5.99
2019-01-15T00:51:37.997Z,5.9
2019-01-15T00:52:38.042Z,5.99
2019-01-15T00:53:37.762Z,5.9
2019-01-15T00:54:38.047Z,5.98
2019-01-15T00:55:38.309Z,5.84
2019-01-15T00:56:37.812Z,5.99
2019-01-15T00:57:38.336Z,5.99
2019-01-15T00:58:38.364Z,5.93
2019-01-15T00:59:38.118Z,5.87
2019-01-15T01:00:38.396Z,5.86
2019-01-15T01:01:37.884Z,5.87
2019-01-15T01:02:37.904Z,5.89
2019-01-15T01:03:38.227Z,5.83
2019-01-15T01:04:38.203Z,5.93
2019-01-15T01:05:38.461Z,5.91
2019-01-15T01:06:37.970Z,5.91
2019-01-15T01:07:37.979Z,5.91
2019-01-15T01:08:38.002Z,5.91
2019-01-15T01:09:38.287Z,5.91
2019-01-15T01:10:38.288Z,5.89
2019-01-15T01:11:38.325Z,5.93
2019-01-15T01:12:38.073Z,5.87
2019-01-15T01:13:38.096Z,5.89
2019-01-15T01:14:38.119Z,5.91
2019-01-15T01:15:38.128Z,5.73
2019-01-15T01:16:38.461Z,5.9
2019-01-15T01:17:38.413Z,5.8
2019-01-15T01:18:38.172Z,5.82
2019-01-15T01:19:38.441Z,5.84
2019-01-15T01:20:39.593Z,5.75
2019-01-15T01:21:38.218Z,5.82
2019-01-15T01:22:38.489Z,5.82
2019-01-15T01:23:38.254Z,5.76
2019-01-15T01:24:38.527Z,5.82
2019-01-15T01:25:38.543Z,5.89
2019-01-15T01:26:38.828Z,5.84
2019-01-15T01:27:38.779Z,5.89
2019-01-15T01:28:38.898Z,5.82
2019-01-15T01:29:38.364Z,5.76
2019-01-15T01:30:38.621Z,5.83
2019-01-15T01:31:38.383Z,5.8
2019-01-15T01:32:38.406Z,5.86
2019-01-15T01:33:38.932Z,5.75
2019-01-15T01:34:38.431Z,5.71
2019-01-15T01:35:38.705Z,5.8
2019-01-15T01:36:38.721Z,5.82
2019-01-15T01:37:38.998Z,5.79
2019-01-15T01:38:38.763Z,5.82
2019-01-15T01:39:38.767Z,5.82
2019-01-15T01:40:38.785Z,5.76
2019-01-15T01:41:39.070Z,5.83
2019-01-15T01:42:38.814Z,5.84
2019-01-15T01:43:39.105Z,5.69
2019-01-15T01:44:38.596Z,5.76
2019-01-15T01:45:38.865Z,5.73
2019-01-15T01:46:38.887Z,5.8
2019-01-15T01:47:38.643Z,5.8
2019-01-15T01:48:38.935Z,5.75
2019-01-15T01:49:38.956Z,5.76
2019-01-15T01:50:39.219Z,5.72
2019-01-15T01:51:38.995Z,5.75
2019-01-15T01:52:38.731Z,5.76
2019-01-15T01:53:39.262Z,5.76
2019-01-15T01:54:39.026Z,5.73
2019-01-15T01:55:39.287Z,5.75
2019-01-15T01:56:39.313Z,5.68
2019-01-15T01:57:39.329Z,5.76
2019-01-15T01:58:39.076Z,5.72
2019-01-15T01:59:38.846Z,5.73
2019-01-15T02:00:38.865Z,5.72
2019-01-15T02:01:39.143Z,5.62
2019-01-15T02:02:38.890Z,5.75
2019-01-15T02:03:38.903Z,5.8
2019-01-15T02:04:39.178Z,5.86
2019-01-15T02:05:39.206Z,5.75
2019-01-15T02:06:39.233Z,5.82
2019-01-15T02:07:39.243Z,5.75
2019-01-15T02:08:38.984Z,5.75
2019-01-15T02:09:39.048Z,5.71
2019-01-15T02:10:39.296Z,5.73
2019-01-15T02:11:39.302Z,5.76
2019-01-15T02:12:41.930Z,5.76
2019-01-15T02:13:39.336Z,5.75
2019-01-15T02:14:39.102Z,5.71
2019-01-15T02:15:39.352Z,5.84
2019-01-15T02:16:39.398Z,5.69
2019-01-15T02:17:39.445Z,5.76
2019-01-15T02:18:39.164Z,5.66
2019-01-15T02:19:39.421Z,5.72
2019-01-15T02:20:39.458Z,5.75
2019-01-15T02:21:39.465Z,5.73
2019-01-15T02:22:39.467Z,5.73
2019-01-15T02:23:39.507Z,5.72
2019-01-15T02:24:39.526Z,5.76
2019-01-15T02:25:39.263Z,5.73
2019-01-15T02:26:39.286Z,5.75
2019-01-15T02:27:39.296Z,5.73
2019-01-15T02:28:39.665Z,5.66
2019-01-15T02:29:39.594Z,5.82
2019-01-15T02:30:39.626Z,5.75
2019-01-15T02:31:39.365Z,5.72
2019-01-15T02:32:39.380Z,5.82
2019-01-15T02:33:39.412Z,5.82
2019-01-15T02:34:39.938Z,5.76
2019-01-15T02:35:39.426Z,5.89
2019-01-15T02:36:39.447Z,5.76
2019-01-15T02:37:39.746Z,5.75
2019-01-15T02:38:39.762Z,5.82
2019-01-15T02:39:39.499Z,5.84
2019-01-15T02:40:39.524Z,5.8
2019-01-15T02:41:39.812Z,5.76
2019-01-15T02:42:48.815Z,5.86
2019-01-15T02:43:40.083Z,5.82
2019-01-15T02:44:39.586Z,5.76
2019-01-15T02:45:39.867Z,5.86
2019-01-15T02:46:39.871Z,5.84
2019-01-15T02:47:39.878Z,5.8
2019-01-15T02:48:39.703Z,5.87
2019-01-15T02:49:39.909Z,5.79
2019-01-15T02:50:40.196Z,5.69
2019-01-15T02:51:39.966Z,5.73
2019-01-15T02:52:40.227Z,5.79
2019-01-15T02:53:40.243Z,5.79
2019-01-15T02:54:39.987Z,5.82
2019-01-15T02:55:40.006Z,5.71
2019-01-15T02:56:40.023Z,5.76
2019-01-15T02:57:39.801Z,5.8
2019-01-15T02:58:40.073Z,5.87
2019-01-15T02:59:40.090Z,5.75
2019-01-15T03:00:40.112Z,5.8
2019-01-15T03:01:39.934Z,5.82
2019-01-15T03:02:40.169Z,5.8
2019-01-15T03:03:39.897Z,5.72
2019-01-15T03:04:40.161Z,5.82
2019-01-15T03:05:40.187Z,5.82
2019-01-15T03:06:40.463Z,5.83
2019-01-15T03:07:39.963Z,5.79
2019-01-15T03:08:40.229Z,5.79
2019-01-15T03:09:40.245Z,5.86
2019-01-15T03:10:40.523Z,5.75
2019-01-15T03:11:40.281Z,5.75
2019-01-15T03:12:40.042Z,5.82
2019-01-15T03:13:40.054Z,5.84
2019-01-15T03:14:40.083Z,5.86
2019-01-15T03:15:40.332Z,5.79
2019-01-15T03:16:40.102Z,5.9
2019-01-15T03:17:40.127Z,5.68
2019-01-15T03:18:40.127Z,5.79
2019-01-15T03:19:40.157Z,5.86
2019-01-15T03:20:40.176Z,5.79
2019-01-15T03:21:40.449Z,5.79
2019-01-15T03:22:40.454Z,5.8
2019-01-15T03:23:40.500Z,5.76
2019-01-15T03:24:40.757Z,5.82
2019-01-15T03:25:40.502Z,5.75
2019-01-15T03:26:40.278Z,5.8
2019-01-15T03:27:40.529Z,5.76
2019-01-15T03:28:40.311Z,5.75
2019-01-15T03:29:40.579Z,5.84
2019-01-15T03:30:40.655Z,5.79
2019-01-15T03:31:40.622Z,5.73
2019-01-15T03:32:40.902Z,5.76
2019-01-15T03:33:40.389Z,5.8
2019-01-15T03:34:40.657Z,5.79
2019-01-15T03:35:40.673Z,5.82
2019-01-15T03:36:42.647Z,5.82
2019-01-15T03:37:40.693Z,5.75
2019-01-15T03:38:40.966Z,5.82
2019-01-15T03:39:40.469Z,5.8
2019-01-15T03:40:40.793Z,5.82
2019-01-15T03:41:40.514Z,5.75
2019-01-15T03:42:40.529Z,5.8
2019-01-15T03:43:40.808Z,5.79
2019-01-15T03:44:40.566Z,5.79
2019-01-15T03:45:40.848Z,5.87
2019-01-15T03:46:40.900Z,5.76
2019-01-15T03:47:40.617Z,5.75
2019-01-15T03:48:40.632Z,5.8
2019-01-15T03:49:40.911Z,5.76
2019-01-15T03:50:40.673Z,5.73
2019-01-15T03:51:40.675Z,5.82
2019-01-15T03:52:40.707Z,5.68
2019-01-15T03:53:40.712Z,5.8
2019-01-15T03:54:40.732Z,5.79
2019-01-15T03:55:40.732Z,5.76
2019-01-15T03:56:40.755Z,5.72
2019-01-15T03:57:40.772Z,5.73
2019-01-15T03:58:40.792Z,5.8
2019-01-15T03:59:41.337Z,5.84
2019-01-15T04:00:41.069Z,5.79
2019-01-15T04:01:40.835Z,5.87
2019-01-15T04:02:40.861Z,5.84
2019-01-15T04:03:40.874Z,5.84
2019-01-15T04:04:41.149Z,5.8
2019-01-15T04:05:41.188Z,5.8
2019-01-15T04:06:41.186Z,5.83
2019-01-15T04:07:40.927Z,5.76
2019-01-15T04:08:41.205Z,5.86
2019-01-15T04:09:41.224Z,5.82
2019-01-15T04:10:41.237Z,5.84
2019-01-15T04:11:41.253Z,5.86
2019-01-15T04:12:41.008Z,5.87
2019-01-15T04:13:41.039Z,5.76
2019-01-15T04:14:41.045Z,5.75
2019-01-15T04:15:41.056Z,5.84
2019-01-15T04:16:41.347Z,5.86
2019-01-15T04:17:41.093Z,5.83
2019-01-15T04:18:41.376Z,5.89
2019-01-15T04:19:41.120Z,5.82
2019-01-15T04:20:41.672Z,5.87
2019-01-15T04:21:41.438Z,5.75
2019-01-15T04:22:41.181Z,5.8
2019-01-15T04:23:41.493Z,5.82
2019-01-15T04:24:41.471Z,5.8
2019-01-15T04:25:42.185Z,5.73
2019-01-15T04:26:41.517Z,5.86
2019-01-15T04:27:41.523Z,5.73
2019-01-15T04:28:41.542Z,5.8
2019-01-15T04:29:41.296Z,5.84
2019-01-15T04:30:41.848Z,5.82
2019-01-15T04:31:41.859Z,5.79
2019-01-15T04:32:41.864Z,5.76
2019-01-15T04:33:41.345Z,5.8
2019-01-15T04:34:41.633Z,5.68
2019-01-15T04:35:41.379Z,5.79
2019-01-15T04:36:41.658Z,5.79
2019-01-15T04:37:41.692Z,5.82
2019-01-15T04:38:41.689Z,5.8
2019-01-15T04:39:41.456Z,5.83
2019-01-15T04:40:41.720Z,5.73
2019-01-15T04:41:41.742Z,5.72
2019-01-15T04:42:41.757Z,5.79
2019-01-15T04:43:41.778Z,5.8
2019-01-15T04:44:41.545Z,5.82
2019-01-15T04:45:42.061Z,5.79
2019-01-15T04:46:41.819Z,5.79
2019-01-15T04:47:42.099Z,5.83
2019-01-15T04:48:41.872Z,5.8
2019-01-15T04:49:41.874Z,5.8
2019-01-15T04:50:41.636Z,5.82
2019-01-15T04:51:42.155Z,5.76
2019-01-15T04:52:42.185Z,5.75
2019-01-15T04:53:42.191Z,5.8
2019-01-15T04:54:41.964Z,5.73
2019-01-15T04:55:41.989Z,5.8
2019-01-15T04:56:41.992Z,5.76
2019-01-15T04:57:41.764Z,5.84
2019-01-15T04:58:41.769Z,5.87
2019-01-15T04:59:41.823Z,5.76
2019-01-15T05:00:42.063Z,5.84
2019-01-15T05:01:42.334Z,5.82
2019-01-15T05:02:41.822Z,5.76
2019-01-15T05:03:42.354Z,5.8
2019-01-15T05:04:41.863Z,5.72
2019-01-15T05:05:42.127Z,5.75
2019-01-15T05:06:42.406Z,5.79
2019-01-15T05:07:42.161Z,5.86
2019-01-15T05:08:42.186Z,5.8
2019-01-15T05:09:42.519Z,5.79
2019-01-15T05:10:42.251Z,5.76
2019-01-15T05:11:42.263Z,5.79
2019-01-15T05:12:42.249Z,5.79
2019-01-15T05:13:42.278Z,5.86
2019-01-15T05:14:42.032Z,5.68
2019-01-15T05:15:42.289Z,5.86
2019-01-15T05:16:42.302Z,5.75
2019-01-15T05:17:42.591Z,5.75
2019-01-15T05:18:42.354Z,5.87
2019-01-15T05:19:42.097Z,5.76
2019-01-15T05:20:42.133Z,5.86
2019-01-15T05:21:42.404Z,5.82
2019-01-15T05:22:42.150Z,5.89
2019-01-15T05:23:42.436Z,5.83
2019-01-15T05:24:42.725Z,5.72
2019-01-15T05:25:42.241Z,5.91
2019-01-15T05:26:42.491Z,5.84
2019-01-15T05:27:42.242Z,5.83
2019-01-15T05:28:42.508Z,5.82
2019-01-15T05:29:42.286Z,5.94
2019-01-15T05:30:42.538Z,5.82
2019-01-15T05:31:42.290Z,5.86
2019-01-15T05:32:42.321Z,5.89
2019-01-15T05:33:42.657Z,5.89
2019-01-15T05:34:42.613Z,5.83
2019-01-15T05:35:42.363Z,5.86
2019-01-15T05:36:42.373Z,5.87
2019-01-15T05:37:42.389Z,5.84
2019-01-15T05:38:42.419Z,5.89
2019-01-15T05:39:42.700Z,5.9
2019-01-15T05:40:42.985Z,5.89
2019-01-15T05:41:42.459Z,5.89
2019-01-15T05:42:42.479Z,5.9
2019-01-15T05:43:42.757Z,5.94
2019-01-15T05:44:43.044Z,5.9
2019-01-15T05:45:42.805Z,5.91
2019-01-15T05:46:42.805Z,5.97
2019-01-15T05:47:42.562Z,5.9
2019-01-15T05:48:42.833Z,5.91
2019-01-15T05:49:42.849Z,5.97
2019-01-15T05:50:42.863Z,5.93
2019-01-15T05:51:43.161Z,5.91
2019-01-15T05:52:42.642Z,5.94
2019-01-15T05:53:42.909Z,5.93
2019-01-15T05:54:43.186Z,5.98
2019-01-15T05:55:42.691Z,6.02
2019-01-15T05:56:43.222Z,6.01
2019-01-15T05:57:43.243Z,5.97
2019-01-15T05:58:42.994Z,5.97
2019-01-15T05:59:43.010Z,5.97
2019-01-15T06:00:43.284Z,5.99
2019-01-15T06:01:43.049Z,5.97
2019-01-15T06:02:42.799Z,5.98
2019-01-15T06:03:42.822Z,5.97
2019-01-15T06:04:42.827Z,5.94
2019-01-15T06:05:43.118Z,5.97
2019-01-15T06:06:42.869Z,5.91
2019-01-15T06:07:42.876Z,5.99
2019-01-15T06:08:42.909Z,5.94
2019-01-15T06:09:42.919Z,5.99
2019-01-15T06:10:43.201Z,5.91
2019-01-15T06:11:43.470Z,6.02
2019-01-15T06:12:43.213Z,5.99
2019-01-15T06:13:47.063Z,5.99
2019-01-15T06:14:42.987Z,6.02
2019-01-15T06:15:43.015Z,5.91
2019-01-15T06:16:43.284Z,5.94
2019-01-15T06:17:43.553Z,6.02
2019-01-15T06:18:43.308Z,5.97
2019-01-15T06:19:43.611Z,5.93
2019-01-15T06:20:43.343Z,5.97
2019-01-15T06:21:43.617Z,6.04
2019-01-15T06:22:43.124Z,5.99
2019-01-15T06:23:43.652Z,5.99
2019-01-15T06:24:43.150Z,5.99
2019-01-15T06:25:43.439Z,6.01
2019-01-15T06:26:43.179Z,5.93
2019-01-15T06:27:43.467Z,5.97
2019-01-15T06:28:43.491Z,5.98
2019-01-15T06:29:43.487Z,5.99
2019-01-15T06:30:43.506Z,5.99
2019-01-15T06:31:43.270Z,6.11
2019-01-15T06:32:43.285Z,6.01
2019-01-15T06:33:43.576Z,6.08
2019-01-15T06:34:43.570Z,5.99
2019-01-15T06:35:43.599Z,6.12
2019-01-15T06:36:43.611Z,6.08
2019-01-15T06:37:43.651Z,6.01
2019-01-15T06:38:43.388Z,6.04
2019-01-15T06:39:43.406Z,6.01
2019-01-15T06:40:43.415Z,6.05
2019-01-15T06:41:43.698Z,6.07
2019-01-15T06:42:43.722Z,6.07
2019-01-15T06:43:49.921Z,6.11
2019-01-15T06:44:43.733Z,6.05
2019-01-15T06:45:43.488Z,6.2
2019-01-15T06:46:43.771Z,6.14
2019-01-15T06:47:43.783Z,6.11
2019-01-15T06:48:43.797Z,6.09
2019-01-15T06:49:43.567Z,6.09
2019-01-15T06:50:43.831Z,6.16
2019-01-15T06:51:43.858Z,6.16
2019-01-15T06:52:43.863Z,6.05
2019-01-15T06:53:43.619Z,6.16
2019-01-15T06:54:43.889Z,6.09
2019-01-15T06:55:44.186Z,6.02
2019-01-15T06:56:43.929Z,6.02
2019-01-15T06:57:43.977Z,6.09
2019-01-15T06:58:43.968Z,6.04
2019-01-15T06:59:43.976Z,6.01
2019-01-15T07:00:44.257Z,6.09
2019-01-15T07:01:44.015Z,6.07
2019-01-15T07:02:44.280Z,6.14
2019-01-15T07:03:44.102Z,6.17
2019-01-15T07:04:48.549Z,6.02
2019-01-15T07:05:44.444Z,6.08
2019-01-15T07:06:44.087Z,6.09
2019-01-15T07:07:44.121Z,6.14
2019-01-15T07:08:44.113Z,6.08
2019-01-15T07:09:43.873Z,6.09
2019-01-15T07:10:44.404Z,6.11
2019-01-15T07:11:44.178Z,6.12
2019-01-15T07:12:43.918Z,6.16
2019-01-15T07:13:44.196Z,6.27
2019-01-15T07:14:44.240Z,6.2
2019-01-15T07:15:43.971Z,6.14
2019-01-15T07:16:44.002Z,6.17
2019-01-15T07:17:44.001Z,6.2
2019-01-15T07:18:44.541Z,6.22
2019-01-15T07:19:44.031Z,6.27
2019-01-15T07:20:44.307Z,6.22
2019-01-15T07:21:44.330Z,6.28
2019-01-15T07:22:44.341Z,6.16
2019-01-15T07:23:44.098Z,6.22
2019-01-15T07:24:44.374Z,6.27
2019-01-15T07:25:44.455Z,6.24
2019-01-15T07:26:44.414Z,6.3
2019-01-15T07:27:44.428Z,6.28
2019-01-15T07:28:44.185Z,6.31
2019-01-15T07:29:44.211Z,6.28
2019-01-15T07:30:44.472Z,6.26
2019-01-15T07:31:44.483Z,6.28
2019-01-15T07:32:44.504Z,6.24
2019-01-15T07:33:44.524Z,6.24
2019-01-15T07:34:44.547Z,6.26
2019-01-15T07:35:44.554Z,6.22
2019-01-15T07:36:44.849Z,6.33
2019-01-15T07:37:44.332Z,6.31
2019-01-15T07:38:44.613Z,6.2
2019-01-15T07:39:44.620Z,6.3
2019-01-15T07:40:44.374Z,6.27
2019-01-15T07:41:44.399Z,6.27
2019-01-15T07:42:44.415Z,6.35
2019-01-15T07:43:44.420Z,6.31
2019-01-15T07:44:44.963Z,6.33
2019-01-15T07:45:44.721Z,6.26
2019-01-15T07:46:44.478Z,6.35
2019-01-15T07:47:44.748Z,6.27
2019-01-15T07:48:44.766Z,6.36
2019-01-15T07:49:44.783Z,6.39
2019-01-15T07:50:45.006Z,6.39
2019-01-15T07:51:44.807Z,6.35
2019-01-15T07:52:45.086Z,6.36
2019-01-15T07:53:44.582Z,6.36
2019-01-15T07:54:44.595Z,6.41
2019-01-15T07:55:44.880Z,6.36
2019-01-15T07:56:44.889Z,6.46
2019-01-15T07:57:45.172Z,6.39
2019-01-15T07:58:45.177Z,6.44
2019-01-15T07:59:44.682Z,6.44
2019-01-15T08:00:44.705Z,6.42
2019-01-15T08:01:44.721Z,6.45
2019-01-15T08:02:45.277Z,6.44
2019-01-15T08:03:44.751Z,6.44
2019-01-15T08:04:45.302Z,6.45
2019-01-15T08:05:45.314Z,6.51
2019-01-15T08:06:45.060Z,6.48
2019-01-15T08:07:45.081Z,6.51
2019-01-15T08:08:44.830Z,6.41
2019-01-15T08:09:44.844Z,6.45
2019-01-15T08:10:46.366Z,6.49
2019-01-15T08:11:44.891Z,6.45
2019-01-15T08:12:45.407Z,6.52
2019-01-15T08:13:45.427Z,6.41
2019-01-15T08:14:45.193Z,6.46
2019-01-15T08:15:45.206Z,6.59
2019-01-15T08:16:44.955Z,6.41
2019-01-15T08:17:45.503Z,6.51
2019-01-15T08:18:45.243Z,6.46
2019-01-15T08:19:45.004Z,6.46
2019-01-15T08:20:45.616Z,6.44
2019-01-15T08:21:45.326Z,6.52
2019-01-15T08:22:45.080Z,6.45
2019-01-15T08:23:45.338Z,6.54
2019-01-15T08:24:45.086Z,6.49
2019-01-15T08:25:45.357Z,6.54
2019-01-15T08:26:45.382Z,6.48
2019-01-15T08:27:45.661Z,6.52
2019-01-15T08:28:45.157Z,6.51
2019-01-15T08:29:45.696Z,6.52
2019-01-15T08:30:45.449Z,6.52
2019-01-15T08:31:45.199Z,6.56
2019-01-15T08:32:45.213Z,6.6
2019-01-15T08:33:45.509Z,6.59
2019-01-15T08:34:45.504Z,6.59
2019-01-15T08:35:45.564Z,6.62
2019-01-15T08:36:45.592Z,6.62
2019-01-15T08:37:45.553Z,6.62
2019-01-15T08:38:45.316Z,6.66
2019-01-15T08:39:45.334Z,6.57
2019-01-15T08:40:45.352Z,6.63
2019-01-15T08:41:45.365Z,6.67
2019-01-15T08:42:45.373Z,6.69
2019-01-15T08:43:45.394Z,6.69
2019-01-15T08:44:45.412Z,6.64
2019-01-15T08:45:45.444Z,6.67
2019-01-15T08:46:45.722Z,6.64
2019-01-15T08:47:45.971Z,6.69
2019-01-15T08:48:45.789Z,6.64
2019-01-15T08:49:45.747Z,6.7
2019-01-15T08:50:45.506Z,6.69
2019-01-15T08:51:45.534Z,6.72
2019-01-15T08:52:45.557Z,6.79
2019-01-15T08:53:45.819Z,6.81
2019-01-15T08:54:45.572Z,6.81
2019-01-15T08:55:46.110Z,6.87
2019-01-15T08:56:45.876Z,6.78
2019-01-15T08:57:45.883Z,6.82
2019-01-15T08:58:45.901Z,6.87
2019-01-15T08:59:45.651Z,6.82
2019-01-15T09:00:45.681Z,6.88
2019-01-15T09:01:45.686Z,6.89
2019-01-15T09:02:45.700Z,6.88
2019-01-15T09:03:45.715Z,6.85
2019-01-15T09:04:45.742Z,6.95
2019-01-15T09:05:46.536Z,6.93
2019-01-15T09:06:46.037Z,6.93
2019-01-15T09:07:46.047Z,6.96
2019-01-15T09:08:45.806Z,6.92
2019-01-15T09:09:46.400Z,6.93
2019-01-15T09:10:46.103Z,7
2019-01-15T09:11:46.127Z,6.85
2019-01-15T09:12:46.143Z,6.88
2019-01-15T09:13:45.880Z,6.87
2019-01-15T09:14:46.168Z,6.96
2019-01-15T09:15:46.187Z,6.87
2019-01-15T09:16:46.577Z,6.88
2019-01-15T09:17:46.218Z,6.89
2019-01-15T09:18:46.269Z,6.85
2019-01-15T09:19:46.243Z,6.89
2019-01-15T09:20:46.252Z,6.96
2019-01-15T09:21:46.338Z,6.93
2019-01-15T09:22:46.059Z,6.95
2019-01-15T09:23:46.050Z,6.97
2019-01-15T09:24:46.132Z,6.97
2019-01-15T09:25:46.355Z,6.92
2019-01-15T09:26:46.117Z,6.97
2019-01-15T09:27:46.435Z,7.02
2019-01-15T09:28:46.395Z,6.95
2019-01-15T09:29:46.439Z,6.93
2019-01-15T09:30:46.162Z,6.96
2019-01-15T09:31:46.446Z,7.07
2019-01-15T09:32:46.508Z,7.07
2019-01-15T09:33:46.227Z,6.93
2019-01-15T09:34:46.741Z,7.06
2019-01-15T09:35:46.501Z,7.03
2019-01-15T09:36:46.518Z,7.07
2019-01-15T09:37:46.545Z,7.03
2019-01-15T09:38:46.301Z,7.1
2019-01-15T09:39:46.570Z,7.13
2019-01-15T09:40:46.855Z,7.07
2019-01-15T09:41:46.858Z,7.03
2019-01-15T09:42:46.627Z,7.02
2019-01-15T09:43:46.893Z,7.07
2019-01-15T09:44:46.392Z,7.07
2019-01-15T09:45:46.414Z,7.05
2019-01-15T09:46:46.433Z,7.07
2019-01-15T09:47:46.700Z,7.06
2019-01-15T09:48:46.458Z,7.06
2019-01-15T09:49:46.476Z,7.06
2019-01-15T09:50:47.008Z,7.07
2019-01-15T09:51:46.511Z,7.15
2019-01-15T09:52:46.791Z,7.24
2019-01-15T09:53:46.540Z,7.24
2019-01-15T09:54:47.092Z,7.21
2019-01-15T09:55:46.836Z,7.23
2019-01-15T09:56:46.597Z,7.15
2019-01-15T09:57:46.882Z,7.21
2019-01-15T09:58:46.625Z,7.15
2019-01-15T09:59:46.640Z,7.15
2019-01-15T10:00:46.657Z,7.25
2019-01-15T10:01:47.213Z,7.25
2019-01-15T10:02:46.956Z,7.25
2019-01-15T10:03:47.224Z,7.31
2019-01-15T10:04:46.985Z,7.25
2019-01-15T10:05:46.754Z,7.29
2019-01-15T10:06:47.038Z,7.31
2019-01-15T10:07:46.782Z,7.38
2019-01-15T10:08:47.058Z,7.32
2019-01-15T10:09:47.071Z,7.38
2019-01-15T10:10:47.080Z,7.43
2019-01-15T10:11:47.096Z,7.4
2019-01-15T10:12:47.113Z,7.5
2019-01-15T10:13:47.129Z,7.38
2019-01-15T10:14:46.893Z,7.54
2019-01-15T10:15:46.907Z,7.54
2019-01-15T10:16:46.915Z,7.45
2019-01-15T10:17:46.940Z,7.47
2019-01-15T10:18:47.472Z,7.51
2019-01-15T10:19:47.482Z,7.56
2019-01-15T10:20:47.501Z,7.53
2019-01-15T10:21:47.272Z,7.54
2019-01-15T10:22:47.284Z,7.56
2019-01-15T10:23:47.293Z,7.57
2019-01-15T10:24:47.103Z,7.53
2019-01-15T10:25:47.321Z,7.5
2019-01-15T10:26:47.362Z,7.54
2019-01-15T10:27:47.354Z,7.57
2019-01-15T10:28:47.382Z,7.54
2019-01-15T10:29:47.393Z,7.61
2019-01-15T10:30:47.150Z,7.6
2019-01-15T10:31:47.704Z,7.56
2019-01-15T10:32:47.706Z,7.66
2019-01-15T10:33:47.730Z,7.63
2019-01-15T10:34:47.223Z,7.66
2019-01-15T10:35:47.231Z,7.67
2019-01-15T10:36:47.245Z,7.58
2019-01-15T10:37:47.529Z,7.6
2019-01-15T10:38:47.283Z,7.69
2019-01-15T10:39:47.562Z,7.63
2019-01-15T10:40:47.321Z,7.7
2019-01-15T10:41:47.592Z,7.6
2019-01-15T10:42:47.347Z,7.61
2019-01-15T10:43:47.615Z,7.67
2019-01-15T10:44:53.532Z,7.73
2019-01-15T10:45:47.668Z,7.7
2019-01-15T10:46:47.419Z,7.75
2019-01-15T10:47:47.959Z,7.66
2019-01-15T10:48:47.980Z,7.76
2019-01-15T10:49:47.732Z,7.67
2019-01-15T10:50:47.737Z,7.73
2019-01-15T10:51:47.506Z,7.66
2019-01-15T10:52:47.769Z,7.69
2019-01-15T10:53:48.053Z,7.66
2019-01-15T10:54:47.544Z,7.66
2019-01-15T10:55:47.562Z,7.69
2019-01-15T10:56:47.840Z,7.75
2019-01-15T10:57:48.116Z,7.63
2019-01-15T10:58:47.868Z,7.63
2019-01-15T10:59:48.163Z,7.7
2019-01-15T11:00:48.182Z,7.77
2019-01-15T11:01:48.188Z,7.8
2019-01-15T11:02:47.739Z,7.82
2019-01-15T11:03:47.707Z,7.83
2019-01-15T11:04:47.972Z,7.79
2019-01-15T11:05:47.990Z,7.82
2019-01-15T11:06:47.999Z,7.82
2019-01-15T11:07:48.293Z,7.77
2019-01-15T11:08:48.044Z,7.8
2019-01-15T11:09:48.315Z,7.76
2019-01-15T11:10:48.085Z,7.79
2019-01-15T11:11:48.342Z,7.82
2019-01-15T11:12:48.106Z,7.82
2019-01-15T11:13:47.912Z,7.8
2019-01-15T11:14:47.875Z,7.82
2019-01-15T11:15:47.988Z,7.79
2019-01-15T11:16:47.913Z,7.75
2019-01-15T11:17:48.181Z,7.83
2019-01-15T11:18:47.944Z,7.79
2019-01-15T11:19:48.218Z,7.82
2019-01-15T11:20:48.503Z,7.8
2019-01-15T11:21:48.264Z,7.85
2019-01-15T11:22:48.271Z,7.87
2019-01-15T11:23:48.033Z,7.82
2019-01-15T11:24:48.041Z,7.82
2019-01-15T11:25:48.322Z,7.83
2019-01-15T11:26:48.079Z,7.79
2019-01-15T11:27:48.618Z,7.82
2019-01-15T11:28:48.109Z,7.87
2019-01-15T11:29:48.398Z,7.83
2019-01-15T11:30:48.669Z,7.87
2019-01-15T11:31:48.419Z,7.82
2019-01-15T11:32:48.444Z,7.79
2019-01-15T11:33:48.193Z,7.79
2019-01-15T11:34:48.490Z,7.8
2019-01-15T11:35:48.241Z,7.76
2019-01-15T11:36:48.255Z,7.79
2019-01-15T11:37:48.523Z,7.77
2019-01-15T11:38:48.547Z,7.8
2019-01-15T11:39:48.565Z,7.85
2019-01-15T11:40:48.575Z,7.77
2019-01-15T11:41:48.341Z,7.76
2019-01-15T11:42:48.638Z,7.83
2019-01-15T11:43:48.620Z,7.76
2019-01-15T11:44:48.381Z,7.83
2019-01-15T11:45:48.414Z,7.85
2019-01-15T11:46:48.672Z,7.79
2019-01-15T11:47:48.944Z,7.82
2019-01-15T11:48:48.446Z,7.9
2019-01-15T11:49:48.979Z,7.82
2019-01-15T11:50:48.743Z,7.95
2019-01-15T11:51:48.498Z,7.91
2019-01-15T11:52:48.779Z,7.8
2019-01-15T11:53:48.794Z,7.88
2019-01-15T11:54:48.817Z,7.9
2019-01-15T11:55:48.570Z,7.9
2019-01-15T11:56:48.585Z,7.88
2019-01-15T11:57:48.611Z,7.87
2019-01-15T11:58:49.137Z,7.87
2019-01-15T11:59:48.885Z,7.87
2019-01-15T12:00:48.658Z,7.85
2019-01-15T12:01:48.930Z,7.9
2019-01-15T12:02:48.947Z,7.85
2019-01-15T12:03:48.951Z,7.9
2019-01-15T12:04:48.711Z,7.91
2019-01-15T12:05:48.996Z,7.9
2019-01-15T12:06:48.751Z,7.9
2019-01-15T12:07:49.290Z,7.88
2019-01-15T12:08:49.052Z,7.87
2019-01-15T12:09:49.060Z,7.88
2019-01-15T12:10:49.079Z,7.95
2019-01-15T12:11:48.828Z,7.93
2019-01-15T12:12:48.853Z,7.93
2019-01-15T12:13:49.132Z,7.87
2019-01-15T12:14:49.146Z,7.94
2019-01-15T12:15:49.179Z,7.93
2019-01-15T12:16:48.924Z,7.95
2019-01-15T12:17:49.205Z,7.91
2019-01-15T12:18:49.212Z,7.98
2019-01-15T12:19:48.968Z,7.97
2019-01-15T12:20:49.247Z,7.97
2019-01-15T12:21:49.265Z,7.97
2019-01-15T12:22:49.532Z,8.06
2019-01-15T12:23:49.032Z,8.01
2019-01-15T12:24:49.302Z,7.97
2019-01-15T12:25:49.332Z,8
2019-01-15T12:26:49.350Z,8.12
2019-01-15T12:27:49.367Z,8
2019-01-15T12:28:49.636Z,8.06
2019-01-15T12:29:49.414Z,8.1
2019-01-15T12:30:49.412Z,8.12
2019-01-15T12:31:49.441Z,8.09
2019-01-15T12:32:49.442Z,8.1
2019-01-15T12:33:49.208Z,8.05
2019-01-15T12:34:49.229Z,8.1
2019-01-15T12:35:49.232Z,8.12
2019-01-15T12:36:49.507Z,8.08
2019-01-15T12:37:49.541Z,8.1
2019-01-15T12:38:49.542Z,8.12
2019-01-15T12:39:49.583Z,8.16
2019-01-15T12:40:49.327Z,8.2
2019-01-15T12:41:49.863Z,8.12
2019-01-15T12:42:49.356Z,8.16
2019-01-15T12:43:49.626Z,8.12
2019-01-15T12:44:49.394Z,8.15
2019-01-15T12:45:49.662Z,8.16
2019-01-15T12:46:49.417Z,8.15
2019-01-15T12:47:49.488Z,8.18
2019-01-15T12:48:49.464Z,8.23
2019-01-15T12:49:49.528Z,8.19
2019-01-15T12:50:49.753Z,8.18
2019-01-15T12:51:49.830Z,8.26
2019-01-15T12:52:49.829Z,8.27
2019-01-15T12:53:50.060Z,8.27
2019-01-15T12:54:49.572Z,8.23
2019-01-15T12:55:50.100Z,8.27
2019-01-15T12:56:49.843Z,8.27
2019-01-15T12:57:49.884Z,8.28
2019-01-15T12:58:49.892Z,8.3
2019-01-15T12:59:50.168Z,8.31
2019-01-15T13:00:49.918Z,8.34
2019-01-15T13:01:49.941Z,8.31
2019-01-15T13:02:49.959Z,8.33
2019-01-15T13:03:49.962Z,8.37
2019-01-15T13:04:50.558Z,8.3
2019-01-15T13:05:50.272Z,8.41
2019-01-15T13:06:50.012Z,8.38
2019-01-15T13:07:49.789Z,8.38
2019-01-15T13:08:50.063Z,8.37
2019-01-15T13:09:50.075Z,8.36
2019-01-15T13:10:50.086Z,8.38
2019-01-15T13:11:50.374Z,8.42
2019-01-15T13:12:50.393Z,8.38
2019-01-15T13:13:49.877Z,8.41
2019-01-15T13:14:50.159Z,8.37
2019-01-15T13:15:51.599Z,8.34
2019-01-15T13:16:49.924Z,8.37
2019-01-15T13:17:50.206Z,8.37
2019-01-15T13:18:50.219Z,8.38
2019-01-15T13:19:50.232Z,8.34
2019-01-15T13:20:50.262Z,8.37
2019-01-15T13:21:50.025Z,8.37